Time;durP1;ratioP1;P1;durP2;ratioP2;P2;SDS_P1;SDS_P2;PMS_P1;PMS_P2;Temp;Humidity;BMP_temperature;BMP_pressure;BME280_temperature;BME280_humidity;BME280_pressure;Samples;Min_cycle;Max_cycle;Signal;HPM_P1;HPM_P2
2022/08/31 00:05:32;;;;;;;6.40;1.50;;;;;;;15.82;75.62;100332.14;213477;1280;140632;-63
2022/08/31 00:10:39;;;;;;;1.70;1.60;;;;;;;15.87;75.99;100333.27;212418;1281;140653;-63
2022/08/31 00:15:44;;;;;;;1.70;1.60;;;;;;;15.89;75.90;100335.31;212668;1280;139834;-64
2022/08/31 00:20:47;;;;;;;4.80;1.80;;;;;;;15.91;76.30;100334.46;214272;1280;139433;-66
2022/08/31 00:25:50;;;;;;;2.00;1.90;;;;;;;15.89;76.12;100336.39;215562;1276;141603;-64
2022/08/31 00:30:52;;;;;;;1.40;1.40;;;;;;;15.82;75.92;100334.78;215583;1276;142705;-64
2022/08/31 00:35:55;;;;;;;1.80;1.70;;;;;;;15.76;75.95;100338.37;215483;1277;142059;-64
2022/08/31 00:40:59;;;;;;;2.60;1.50;;;;;;;15.71;76.00;100340.89;215537;1276;140208;-64
2022/08/31 00:46:05;;;;;;;3.30;2.10;;;;;;;15.58;76.08;100345.33;214384;1276;141304;-66
2022/08/31 00:51:08;;;;;;;1.80;1.70;;;;;;;15.55;76.52;100345.50;214544;1276;139406;-65
2022/08/31 00:56:14;;;;;;;2.30;1.80;;;;;;;15.62;76.85;100346.61;213211;1277;140093;-65
2022/08/31 01:01:19;;;;;;;5.80;2.00;;;;;;;15.66;76.79;100346.11;214371;1277;140561;-66
2022/08/31 01:06:22;;;;;;;3.20;2.30;;;;;;;15.63;76.70;100338.71;214313;1276;140052;-64
2022/08/31 01:11:26;;;;;;;2.70;2.00;;;;;;;15.66;76.92;100336.48;212792;1277;141045;-66
2022/08/31 01:16:39;;;;;;;3.60;1.80;;;;;;;15.61;76.67;100330.79;213919;1277;141787;-65
2022/08/31 01:22:23;;;;;;;2.50;2.30;;;;;;;15.53;76.49;100327.97;213332;1277;142110;-64
2022/08/31 01:27:31;;;;;;;2.30;2.10;;;;;;;15.44;76.39;100330.59;213126;1277;142608;-64
2022/08/31 01:32:34;;;;;;;6.10;2.60;;;;;;;15.29;75.97;100331.11;213053;1277;142478;-65
2022/08/31 01:37:37;;;;;;;2.40;2.00;;;;;;;15.11;75.95;100336.91;212828;1277;139886;-65
2022/08/31 01:42:42;;;;;;;2.70;2.50;;;;;;;14.97;75.91;100338.30;214315;1277;139963;-64
2022/08/31 01:47:44;;;;;;;2.10;2.00;;;;;;;14.84;75.96;100337.10;214404;1276;140543;-64
2022/08/31 01:52:47;;;;;;;2.50;2.30;;;;;;;14.68;75.75;100341.27;213643;1276;141092;-66
2022/08/31 01:57:51;;;;;;;5.40;2.70;;;;;;;14.49;75.86;100340.67;214194;1277;140475;-64
2022/08/31 02:02:57;;;;;;;3.50;2.50;;;;;;;14.32;75.96;100338.84;212793;1277;141496;-63
2022/08/31 02:08:02;;;;;;;4.80;3.00;;;;;;;14.22;76.06;100340.61;213988;1276;140479;-65
2022/08/31 02:13:06;;;;;;;5.30;2.70;;;;;;;14.15;76.20;100339.69;214260;1276;142342;-66
2022/08/31 02:18:09;;;;;;;3.10;2.70;;;;;;;14.11;76.44;100334.41;215538;1277;141215;-64
2022/08/31 02:23:13;;;;;;;4.70;2.60;;;;;;;14.08;76.24;100332.32;215650;1276;139495;-64
2022/08/31 02:28:17;;;;;;;2.30;2.10;;;;;;;14.02;76.17;100333.10;215504;1276;139291;-64
2022/08/31 02:33:23;;;;;;;6.20;2.70;;;;;;;13.93;75.76;100330.20;214376;1276;140273;-65
2022/08/31 02:38:27;;;;;;;4.30;2.40;;;;;;;13.79;75.84;100332.38;214575;1276;141494;-65
2022/08/31 02:43:30;;;;;;;3.20;3.00;;;;;;;13.70;76.10;100332.23;215437;1276;141447;-65
2022/08/31 02:48:36;;;;;;;3.10;2.60;;;;;;;13.64;76.16;100331.69;215137;1276;139883;-65
2022/08/31 02:53:39;;;;;;;2.30;2.20;;;;;;;13.57;76.17;100328.05;214547;1276;140330;-64
2022/08/31 02:58:41;;;;;;;3.20;2.10;;;;;;;13.50;76.08;100321.45;213779;1276;141333;-64
2022/08/31 03:03:44;;;;;;;2.60;2.00;;;;;;;13.35;75.62;100322.73;213473;1276;140996;-64
2022/08/31 03:08:50;;;;;;;2.40;2.10;;;;;;;13.13;75.70;100322.17;214195;1276;139685;-65
2022/08/31 03:13:53;;;;;;;2.50;2.30;;;;;;;13.00;76.22;100327.98;213631;1276;150507;-65
2022/08/31 03:19:01;;;;;;;3.20;2.90;;;;;;;12.82;76.19;100332.11;213049;1276;139890;-65
2022/08/31 03:24:04;;;;;;;2.10;2.00;;;;;;;12.68;76.63;100335.01;213267;1276;140193;-65
2022/08/31 03:29:07;;;;;;;2.90;2.60;;;;;;;12.63;76.68;100336.86;213225;1277;143580;-66
2022/08/31 03:34:09;;;;;;;3.30;3.10;;;;;;;12.63;77.22;100340.70;213190;1276;140870;-65
2022/08/31 03:39:11;;;;;;;5.50;3.30;;;;;;;12.60;77.22;100339.52;213300;1277;141505;-65
2022/08/31 03:44:14;;;;;;;3.10;2.80;;;;;;;12.46;77.19;100344.13;213929;1276;140096;-66
2022/08/31 03:49:17;;;;;;;5.10;3.30;;;;;;;12.33;76.98;100348.37;213760;1276;139255;-65
2022/08/31 03:54:21;;;;;;;3.30;3.00;;;;;;;12.32;77.44;100347.11;214009;1276;140505;-65
2022/08/31 03:59:24;;;;;;;3.40;3.20;;;;;;;12.31;77.40;100350.95;214306;1275;140073;-63
2022/08/31 04:04:26;;;;;;;5.90;3.00;;;;;;;12.32;77.63;100344.11;214111;1276;139512;-64
2022/08/31 04:09:30;;;;;;;3.90;3.10;;;;;;;12.28;77.51;100345.41;214567;1277;139445;-64
2022/08/31 04:14:32;;;;;;;4.70;3.70;;;;;;;12.33;77.56;100353.13;214406;1276;141651;-64
2022/08/31 04:19:35;;;;;;;4.00;3.20;;;;;;;12.35;77.54;100357.99;215336;1276;140613;-63
2022/08/31 04:24:37;;;;;;;3.70;3.10;;;;;;;12.32;77.55;100362.57;215832;1276;140671;-64
2022/08/31 04:29:41;;;;;;;5.80;3.20;;;;;;;12.34;77.60;100367.15;215586;1276;139708;-64
2022/08/31 04:34:44;;;;;;;2.70;2.50;;;;;;;12.39;77.45;100361.52;215483;1276;140446;-64
2022/08/31 04:39:47;;;;;;;3.60;3.20;;;;;;;12.52;77.89;100363.85;215755;1276;141095;-65
2022/08/31 04:44:53;;;;;;;3.60;3.20;;;;;;;12.63;77.93;100368.05;215189;1276;139907;-64
2022/08/31 04:49:56;;;;;;;5.70;2.70;;;;;;;12.69;77.96;100367.30;214634;1276;139583;-65
2022/08/31 04:54:59;;;;;;;2.90;2.70;;;;;;;12.74;78.10;100371.48;213746;1276;140726;-64
2022/08/31 05:00:04;;;;;;;3.30;3.00;;;;;;;12.81;78.36;100369.75;210793;1276;4349058;-64
2022/08/31 05:05:10;;;;;;;3.50;3.20;;;;;;;12.92;78.27;100375.55;214389;1275;140002;-64
2022/08/31 05:10:14;;;;;;;2.50;2.40;;;;;;;13.08;78.78;100381.52;213678;1276;140377;-65
2022/08/31 05:15:17;;;;;;;4.20;3.60;;;;;;;13.28;78.84;100372.87;213159;1276;140748;-65
2022/08/31 05:20:20;;;;;;;5.20;4.80;;;;;;;13.48;79.13;100369.77;213422;1276;139715;-66
2022/08/31 05:25:23;;;;;;;5.30;4.50;;;;;;;13.68;79.63;100373.33;213445;1276;139821;-65
2022/08/31 05:30:29;;;;;;;4.60;3.80;;;;;;;13.86;79.50;100375.64;212849;1276;140263;-67
2022/08/31 05:35:33;;;;;;;7.60;4.60;;;;;;;14.05;79.72;100387.56;213335;1276;140405;-65
2022/08/31 05:40:37;;;;;;;9.70;7.10;;;;;;;14.24;80.14;100383.45;213462;1276;140376;-65
2022/08/31 05:45:43;;;;;;;7.30;5.20;;;;;;;14.43;80.10;100386.72;214100;1276;140058;-64
2022/08/31 05:50:47;;;;;;;5.40;4.60;;;;;;;14.68;80.41;100384.48;213381;1276;140086;-63
2022/08/31 05:56:02;;;;;;;4.50;3.60;;;;;;;14.90;80.48;100385.13;213944;1276;139834;-66
2022/08/31 06:01:33;;;;;;;3.90;3.60;;;;;;;15.12;80.31;100389.73;213049;1277;141481;-66
2022/08/31 06:06:37;;;;;;;4.40;3.90;;;;;;;15.38;80.02;100395.52;212997;1276;141963;-64
2022/08/31 06:11:41;;;;;;;3.40;2.80;;;;;;;15.54;79.60;100403.42;215917;1276;140007;-65
2022/08/31 06:16:44;;;;;;;3.60;3.20;;;;;;;15.73;79.32;100408.23;215818;1276;140531;-66
2022/08/31 06:21:49;;;;;;;3.40;2.50;;;;;;;15.94;78.74;100411.61;215186;1276;140582;-66
2022/08/31 06:26:58;;;;;;;4.30;2.10;;;;;;;16.15;78.60;100416.95;215443;1276;140767;-67
2022/08/31 06:32:06;;;;;;;3.00;2.70;;;;;;;16.29;78.10;100418.19;215810;1276;142052;-66
2022/08/31 06:37:13;;;;;;;3.70;1.90;;;;;;;16.41;77.42;100421.48;215500;1276;139485;-67
2022/08/31 06:42:20;;;;;;;2.00;1.40;;;;;;;16.62;77.15;100422.08;215098;1276;140929;-67
2022/08/31 06:47:23;;;;;;;8.30;1.80;;;;;;;16.87;76.84;100427.71;214993;1276;140247;-65
2022/08/31 06:52:26;;;;;;;6.60;2.30;;;;;;;17.37;76.12;100427.89;215377;1276;139969;-64
2022/08/31 06:57:29;;;;;;;3.70;2.20;;;;;;;17.98;75.41;100428.28;214518;1276;140769;-65
2022/08/31 07:02:33;;;;;;;2.60;2.30;;;;;;;18.35;74.48;100431.20;213590;1276;141007;-65
2022/08/31 07:07:36;;;;;;;4.10;2.00;;;;;;;18.51;74.07;100432.89;215881;1276;140835;-65
2022/08/31 07:12:39;;;;;;;1.60;1.50;;;;;;;18.75;73.48;100431.17;214195;1276;151527;-64
2022/08/31 07:17:43;;;;;;;1.30;1.10;;;;;;;19.33;72.50;100435.64;214761;1275;140596;-66
2022/08/31 07:22:50;;;;;;;1.60;1.10;;;;;;;20.27;71.37;100437.02;213339;1276;140141;-64
2022/08/31 07:27:54;;;;;;;1.90;1.40;;;;;;;21.17;70.47;100443.31;213150;1276;140933;-63
2022/08/31 07:32:57;;;;;;;3.60;1.70;;;;;;;21.49;69.12;100444.96;213126;1276;139920;-65
2022/08/31 07:43:26;;;;;;;4.80;1.40;;;;;;;22.23;67.20;100447.79;214299;1276;144461;-65
2022/08/31 07:48:29;;;;;;;2.50;1.30;;;;;;;22.56;66.03;100444.77;213763;1276;140413;-65
2022/08/31 07:53:41;;;;;;;1.70;1.00;;;;;;;22.56;64.78;100445.69;214182;1276;142561;-63
2022/08/31 07:58:46;;;;;;;3.10;1.50;;;;;;;22.37;63.52;100450.27;214788;1276;140606;-63
2022/08/31 08:03:52;;;;;;;4.30;2.40;;;;;;;22.52;63.51;100448.96;213604;1276;140196;-65
2022/08/31 08:09:04;;;;;;;3.10;3.00;;;;;;;22.74;63.21;100450.64;214337;1276;140722;-65
2022/08/31 08:14:27;;;;;;;3.30;2.80;;;;;;;22.90;62.16;100456.23;214695;1276;139981;-65
2022/08/31 08:19:33;;;;;;;4.00;3.80;;;;;;;23.16;61.04;100462.27;214311;1276;139883;-65
2022/08/31 08:24:38;;;;;;;5.40;4.80;;;;;;;22.95;59.43;100470.81;215800;1277;140414;-65
2022/08/31 08:29:44;;;;;;;4.60;2.20;;;;;;;22.66;59.73;100474.05;215763;1276;141428;-66
2022/08/31 08:34:47;;;;;;;1.40;1.30;;;;;;;22.93;59.95;100469.64;215281;1276;139875;-64
2022/08/31 08:39:50;;;;;;;1.40;0.90;;;;;;;23.35;59.53;100470.44;215413;1276;141264;-65
2022/08/31 08:44:52;;;;;;;1.70;0.90;;;;;;;23.26;58.32;100478.30;215243;1276;139840;-65
2022/08/31 08:50:03;;;;;;;1.40;1.10;;;;;;;23.17;58.11;100478.41;214428;1276;141061;-66
2022/08/31 08:55:15;;;;;;;1.50;1.30;;;;;;;22.79;57.78;100477.71;213390;1276;140332;-64
2022/08/31 09:00:19;;;;;;;1.90;1.00;;;;;;;23.03;57.82;100469.52;213796;1276;140187;-65
2022/08/31 09:05:34;;;;;;;3.80;0.70;;;;;;;22.53;56.35;100470.13;213624;1276;139603;-65
2022/08/31 09:10:44;;;;;;;2.60;1.00;;;;;;;21.88;56.20;100473.50;213943;1276;139503;-65
2022/08/31 09:16:19;;;;;;;3.50;1.00;;;;;;;22.02;57.09;100464.46;213562;1276;139998;-65
2022/08/31 09:21:26;;;;;;;3.10;0.80;;;;;;;22.73;56.36;100460.41;213631;1276;141151;-66
2022/08/31 09:26:34;;;;;;;0.70;0.70;;;;;;;23.11;54.58;100455.07;213076;1276;153156;-66
2022/08/31 09:31:41;;;;;;;0.90;0.90;;;;;;;23.67;54.73;100457.24;213660;1278;141529;-65
2022/08/31 09:36:45;;;;;;;2.40;1.10;;;;;;;23.90;53.64;100451.54;213832;1276;141930;-64
2022/08/31 09:41:49;;;;;;;2.20;1.30;;;;;;;23.74;52.65;100451.35;214002;1276;140444;-66
2022/08/31 09:47:00;;;;;;;2.80;1.10;;;;;;;23.35;52.53;100447.43;213871;1276;140540;-66
2022/08/31 09:52:18;;;;;;;4.00;1.10;;;;;;;23.36;52.49;100445.61;214738;1276;150033;-67
2022/08/31 09:57:49;;;;;;;2.70;1.30;;;;;;;23.42;52.04;100441.86;213442;1277;139487;-65
2022/08/31 10:03:02;;;;;;;4.10;1.00;;;;;;;22.95;51.91;100441.67;214306;1276;139707;-64
2022/08/31 10:08:38;;;;;;;1.80;0.70;;;;;;;22.58;52.58;100445.21;214953;1276;140355;-66
2022/08/31 10:13:57;;;;;;;0.70;0.70;;;;;;;22.33;53.26;100444.58;213366;1276;142847;-64
2022/08/31 10:19:10;;;;;;;2.00;0.90;;;;;;;22.10;53.35;100451.06;215628;1276;151052;-65
2022/08/31 10:24:31;;;;;;;1.30;0.80;;;;;;;21.97;52.58;100451.41;215497;1276;141764;-65
2022/08/31 10:29:47;;;;;;;1.40;0.50;;;;;;;22.14;52.74;100446.37;215652;1276;140426;-65
2022/08/31 10:35:21;;;;;;;4.80;0.80;;;;;;;22.66;52.23;100444.33;215408;1276;140521;-65
2022/08/31 10:40:34;;;;;;;2.80;0.70;;;;;;;23.30;52.48;100435.34;215634;1276;140811;-65
2022/08/31 10:45:42;;;;;;;0.90;0.90;;;;;;;23.69;51.28;100431.34;213480;1276;142549;-65
2022/08/31 10:50:55;;;;;;;2.70;0.80;;;;;;;23.68;51.24;100427.23;213177;1277;140635;-64
2022/08/31 10:56:25;;;;;;;2.40;1.10;;;;;;;23.42;50.75;100431.02;214464;1277;140748;-65
2022/08/31 11:02:00;;;;;;;2.60;0.90;;;;;;;23.13;50.37;100435.13;213810;1276;142043;-63
2022/08/31 11:07:15;;;;;;;1.20;0.70;;;;;;;22.87;51.09;100433.88;213726;1276;140888;-64
2022/08/31 11:12:25;;;;;;;1.10;1.00;;;;;;;22.99;51.40;100427.40;213526;1278;140525;-65
2022/08/31 11:17:49;;;;;;;1.30;1.10;;;;;;;23.14;50.63;100426.47;212956;1276;139468;-64
2022/08/31 11:23:13;;;;;;;1.20;1.10;;;;;;;22.72;50.09;100421.52;213349;1277;139856;-64
2022/08/31 11:28:38;;;;;;;1.40;1.30;;;;;;;22.34;50.53;100420.27;213553;1278;248507;-64
2022/08/31 11:33:49;;;;;;;3.60;1.30;;;;;;;22.60;51.01;100407.36;213169;1277;140147;-64
2022/08/31 11:39:13;;;;;;;1.90;1.20;;;;;;;22.90;50.82;100394.66;213602;1276;141810;-64
2022/08/31 11:44:58;;;;;;;1.30;1.20;;;;;;;23.21;50.30;100389.02;213207;1278;140848;-63
2022/08/31 11:50:21;;;;;;;1.30;1.20;;;;;;;23.51;49.40;100386.28;213431;1278;140831;-62
2022/08/31 11:55:44;;;;;;;1.30;1.30;;;;;;;23.76;49.35;100375.66;214306;1277;140050;-64
2022/08/31 12:01:00;;;;;;;1.30;1.10;;;;;;;23.74;48.19;100377.98;214228;1276;140432;-63
2022/08/31 12:06:05;;;;;;;6.10;1.80;;;;;;;23.35;47.76;100379.52;215136;1277;139918;-63
2022/08/31 12:11:22;;;;;;;1.60;1.40;;;;;;;22.94;48.06;100383.27;212559;1278;140726;-63
2022/08/31 12:16:43;;;;;;;4.40;1.20;;;;;;;22.56;48.70;100385.67;213635;1277;151528;-63
2022/08/31 12:27:38;;;;;;;1.20;1.00;;;;;;;22.19;49.51;100384.36;215584;1276;139545;-63
2022/08/31 12:32:45;;;;;;;0.80;0.70;;;;;;;22.14;49.72;100380.83;215334;1278;141717;-64
2022/08/31 12:38:02;;;;;;;2.20;0.80;;;;;;;22.13;49.49;100372.92;214906;1277;140820;-63
2022/08/31 12:43:15;;;;;;;0.70;0.70;;;;;;;22.14;49.77;100371.66;215175;1276;139945;-64
2022/08/31 12:48:39;;;;;;;3.50;1.10;;;;;;;22.23;49.63;100371.26;212723;1277;142993;-65
2022/08/31 12:54:04;;;;;;;2.60;0.90;;;;;;;22.64;49.45;100363.91;213900;1277;141320;-65
2022/08/31 12:59:21;;;;;;;2.50;1.00;;;;;;;22.97;48.61;100361.74;213263;1276;140865;-63
2022/08/31 13:04:25;;;;;;;1.20;1.10;;;;;;;23.08;47.95;100360.43;213898;1277;140326;-64
2022/08/31 13:09:27;;;;;;;2.60;1.40;;;;;;;23.17;47.75;100362.02;213350;1277;141084;-65
2022/08/31 13:14:40;;;;;;;1.70;0.90;;;;;;;23.00;48.21;100364.77;212703;1277;140275;-63
2022/08/31 13:19:50;;;;;;;2.00;0.90;;;;;;;22.78;48.20;100363.83;212770;1276;142918;-66
2022/08/31 13:24:52;;;;;;;1.00;1.00;;;;;;;22.56;48.80;100365.76;213031;1277;140457;-64
2022/08/31 13:30:12;;;;;;;1.80;0.90;;;;;;;22.30;49.37;100368.48;212863;1277;140330;-64
2022/08/31 13:35:20;;;;;;;0.60;0.60;;;;;;;22.04;49.50;100367.47;213007;1278;141436;-64
2022/08/31 13:40:24;;;;;;;1.30;1.10;;;;;;;21.87;49.88;100366.52;213054;1278;141397;-62
2022/08/31 13:45:35;;;;;;;1.50;1.00;;;;;;;21.76;50.32;100365.70;214049;1277;141416;-63
2022/08/31 13:50:50;;;;;;;2.20;0.80;;;;;;;21.83;51.01;100365.48;213333;1276;140472;-63
2022/08/31 13:55:57;;;;;;;1.80;0.80;;;;;;;22.06;50.63;100359.94;213500;1278;140554;-62
2022/08/31 14:01:23;;;;;;;0.70;0.70;;;;;;;22.12;50.21;100352.91;213731;1277;162488;-63
2022/08/31 14:06:36;;;;;;;3.20;2.70;;;;;;;22.05;49.81;100349.33;214844;1278;140400;-62
2022/08/31 14:11:50;;;;;;;1.20;1.00;;;;;;;21.96;49.52;100348.04;215237;1276;140987;-64
2022/08/31 14:16:57;;;;;;;0.90;0.90;;;;;;;21.87;49.59;100343.00;215520;1276;140853;-63
2022/08/31 14:22:26;;;;;;;1.00;1.00;;;;;;;21.80;49.88;100348.21;215483;1278;140437;-65
2022/08/31 14:27:29;;;;;;;5.10;1.40;;;;;;;21.70;50.23;100347.89;215208;1277;140522;-65
2022/08/31 14:32:32;;;;;;;1.50;0.80;;;;;;;21.64;50.94;100346.89;215629;1278;140656;-65
2022/08/31 14:37:36;;;;;;;1.60;1.10;;;;;;;21.56;50.96;100351.13;214779;1276;140762;-63
2022/08/31 14:42:43;;;;;;;1.30;0.90;;;;;;;21.47;50.66;100351.34;214043;1278;141139;-64
2022/08/31 14:47:52;;;;;;;3.10;0.90;;;;;;;21.36;50.33;100352.53;212936;1277;140977;-65
2022/08/31 14:52:56;;;;;;;2.10;0.90;;;;;;;21.39;50.69;100355.52;212891;1278;140499;-64
2022/08/31 14:58:03;;;;;;;1.30;0.80;;;;;;;21.37;50.59;100351.81;214559;1278;141154;-64
2022/08/31 15:03:12;;;;;;;1.50;0.90;;;;;;;21.26;50.15;100347.17;212743;1278;141109;-64
2022/08/31 15:08:20;;;;;;;1.20;0.80;;;;;;;21.21;50.45;100345.92;214204;1277;142722;-63
2022/08/31 15:13:41;;;;;;;1.90;0.90;;;;;;;21.21;50.32;100339.31;212965;1278;141446;-63
2022/08/31 15:18:45;;;;;;;2.60;1.10;;;;;;;21.25;50.32;100335.85;212609;1278;139916;-66
2022/08/31 15:23:49;;;;;;;2.50;1.20;;;;;;;21.24;50.79;100328.98;213915;1277;140098;-64
2022/08/31 15:28:52;;;;;;;1.80;0.90;;;;;;;21.24;51.11;100328.55;212755;1278;142120;-65
2022/08/31 15:33:55;;;;;;;2.80;1.60;;;;;;;21.19;51.22;100330.00;213812;1277;140167;-65
2022/08/31 15:39:02;;;;;;;1.80;1.10;;;;;;;21.04;51.49;100330.02;213494;1277;141048;-65
2022/08/31 15:44:09;;;;;;;1.80;0.80;;;;;;;20.86;51.46;100325.61;212771;1278;140049;-64
2022/08/31 15:49:12;;;;;;;2.00;1.00;;;;;;;20.71;51.60;100327.41;214002;1277;141209;-65
2022/08/31 15:54:17;;;;;;;1.30;1.20;;;;;;;20.56;52.14;100324.73;214447;1278;139538;-64
2022/08/31 15:59:24;;;;;;;5.10;1.00;;;;;;;20.42;52.46;100318.66;214692;1277;140302;-64
2022/08/31 16:04:28;;;;;;;4.00;1.30;;;;;;;20.30;53.03;100323.55;214959;1277;140241;-65
2022/08/31 16:09:31;;;;;;;1.00;0.80;;;;;;;20.14;52.77;100334.31;215322;1277;139631;-64
2022/08/31 16:14:37;;;;;;;7.30;1.40;;;;;;;19.97;53.05;100325.94;215364;1277;140164;-65
2022/08/31 16:19:39;;;;;;;1.70;0.70;;;;;;;19.79;53.44;100318.89;215327;1277;141104;-64
2022/08/31 16:24:44;;;;;;;4.20;1.10;;;;;;;19.65;53.83;100323.56;215524;1276;140155;-64
2022/08/31 16:29:49;;;;;;;4.80;1.00;;;;;;;19.52;54.34;100326.56;214567;1277;140661;-64
2022/08/31 16:34:58;;;;;;;3.00;1.10;;;;;;;19.37;54.74;100328.30;214479;1277;139996;-64
2022/08/31 16:40:03;;;;;;;0.90;0.90;;;;;;;19.22;55.07;100322.48;212670;1277;139191;-63
2022/08/31 16:45:06;;;;;;;1.10;0.90;;;;;;;19.06;55.56;100315.68;213373;1277;140122;-63
2022/08/31 16:50:11;;;;;;;3.70;1.40;;;;;;;18.93;55.90;100318.44;213715;1276;139257;-65
2022/08/31 16:55:18;;;;;;;0.90;0.70;;;;;;;18.79;56.30;100315.62;212614;1277;139971;-64
2022/08/31 17:00:20;;;;;;;1.20;0.60;;;;;;;18.65;56.53;100312.15;213134;1277;1398796;-64
2022/08/31 17:05:35;;;;;;;0.80;0.80;;;;;;;18.50;56.98;100314.85;212474;1277;140314;-64
2022/08/31 17:10:38;;;;;;;3.50;1.30;;;;;;;18.34;57.29;100314.83;213443;1277;139959;-64
2022/08/31 17:15:42;;;;;;;1.60;1.20;;;;;;;18.19;57.92;100316.29;213332;1277;140942;-64
2022/08/31 17:20:45;;;;;;;1.40;1.20;;;;;;;18.03;58.74;100321.84;213166;1277;139279;-65
2022/08/31 17:25:48;;;;;;;1.40;0.90;;;;;;;17.87;59.32;100324.75;213534;1277;139687;-65
2022/08/31 17:30:51;;;;;;;3.40;0.90;;;;;;;17.74;59.86;100325.70;213315;1277;141168;-63
2022/08/31 17:35:53;;;;;;;3.10;1.20;;;;;;;17.62;60.12;100326.00;212665;1278;141355;-64
2022/08/31 17:41:04;;;;;;;1.60;1.00;;;;;;;17.50;60.56;100330.69;213548;1276;140187;-65
2022/08/31 17:46:09;;;;;;;1.60;1.50;;;;;;;17.36;61.07;100343.06;213913;1277;139603;-66
2022/08/31 17:51:26;;;;;;;1.40;1.10;;;;;;;17.23;61.21;100346.77;213757;1276;205903;-64
2022/08/31 17:56:41;;;;;;;15.80;1.70;;;;;;;17.07;61.56;100347.90;215426;1277;140752;-66
2022/08/31 18:01:51;;;;;;;4.00;1.80;;;;;;;16.86;61.87;100348.88;215148;1277;140116;-66
2022/08/31 18:06:55;;;;;;;4.30;1.50;;;;;;;16.71;62.35;100354.16;214003;1277;142318;-67
2022/08/31 18:11:59;;;;;;;13.60;1.80;;;;;;;16.62;62.78;100358.13;215479;1277;141310;-65
2022/08/31 18:17:05;;;;;;;2.30;1.40;;;;;;;16.57;63.12;100362.16;215111;1277;141102;-64
2022/08/31 18:22:08;;;;;;;1.70;1.50;;;;;;;16.40;63.29;100368.46;215272;1277;141392;-65
2022/08/31 18:27:13;;;;;;;3.80;1.80;;;;;;;16.10;63.94;100367.29;213636;1277;141024;-66
2022/08/31 18:32:17;;;;;;;3.30;1.70;;;;;;;15.96;64.64;100371.77;212782;1276;141540;-65
2022/08/31 18:37:20;;;;;;;3.70;1.50;;;;;;;15.95;64.89;100374.02;213709;1276;142058;-64
2022/08/31 18:47:52;;;;;;;2.60;1.50;;;;;;;15.79;65.42;100379.31;212948;1277;141468;-66
2022/08/31 18:53:18;;;;;;;1.40;1.20;;;;;;;15.54;65.90;100382.96;213453;1276;151332;-64
2022/08/31 18:58:30;;;;;;;2.30;1.70;;;;;;;15.37;66.32;100382.77;213268;1276;141105;-63
2022/08/31 19:03:32;;;;;;;1.40;1.30;;;;;;;15.32;66.85;100381.47;212621;1276;143141;-62
2022/08/31 19:08:34;;;;;;;2.50;1.50;;;;;;;15.34;67.30;100380.30;213314;1277;141521;-63
2022/08/31 19:13:38;;;;;;;4.40;2.80;;;;;;;15.29;67.33;100376.40;212593;1276;141301;-65
2022/08/31 19:18:40;;;;;;;2.10;1.90;;;;;;;15.22;67.52;100373.90;212850;1276;141975;-64
2022/08/31 19:23:44;;;;;;;2.20;1.80;;;;;;;15.10;67.43;100368.05;212746;1276;141726;-65
2022/08/31 19:28:48;;;;;;;4.30;2.10;;;;;;;15.03;67.40;100364.77;214163;1276;140821;-63
2022/08/31 19:33:53;;;;;;;2.60;1.60;;;;;;;14.97;67.90;100362.63;213174;1277;141060;-62
2022/08/31 19:38:59;;;;;;;2.10;1.80;;;;;;;14.90;68.12;100360.17;213801;1276;140553;-64
2022/08/31 19:44:12;;;;;;;3.20;1.80;;;;;;;14.80;68.17;100358.78;214110;1277;140013;-64
2022/08/31 19:49:19;;;;;;;2.90;1.80;;;;;;;14.67;68.51;100353.72;213860;1276;140427;-60
2022/08/31 19:54:25;;;;;;;4.00;1.70;;;;;;;14.58;69.15;100359.66;214148;1276;140487;-67
2022/08/31 19:59:29;;;;;;;2.10;1.80;;;;;;;14.61;69.77;100363.56;214301;1277;140858;-64
2022/08/31 20:04:35;;;;;;;4.90;1.90;;;;;;;14.67;69.95;100367.45;215049;1277;140471;-64
2022/08/31 20:09:38;;;;;;;2.20;1.30;;;;;;;14.72;69.82;100366.50;215527;1276;141777;-64
2022/08/31 20:14:40;;;;;;;4.30;1.80;;;;;;;14.74;70.03;100362.34;214242;1276;143016;-63
2022/08/31 20:19:44;;;;;;;2.30;1.30;;;;;;;14.77;70.06;100366.36;215450;1276;150122;-63
2022/08/31 20:24:47;;;;;;;3.20;1.90;;;;;;;14.77;70.03;100363.09;215608;1276;140769;-65
2022/08/31 20:29:49;;;;;;;4.80;1.70;;;;;;;14.72;70.16;100367.30;213085;1276;143718;-65
2022/08/31 20:34:55;;;;;;;4.10;1.60;;;;;;;14.59;69.92;100373.25;213910;1277;140083;-65
2022/08/31 20:39:58;;;;;;;1.50;1.40;;;;;;;14.49;70.32;100382.16;214635;1276;141822;-65
2022/08/31 20:45:00;;;;;;;1.40;1.40;;;;;;;14.43;70.37;100387.04;213324;1276;160548;-66
2022/08/31 20:50:06;;;;;;;1.30;1.30;;;;;;;14.33;70.68;100385.52;214021;1276;139770;-66
2022/08/31 20:55:11;;;;;;;2.70;1.80;;;;;;;14.21;71.16;100384.84;212705;1277;139805;-64
2022/08/31 21:00:14;;;;;;;1.50;1.40;;;;;;;14.17;71.64;100381.27;212922;1277;140238;-64
2022/08/31 21:05:17;;;;;;;1.80;1.60;;;;;;;14.19;71.81;100382.17;213351;1277;140015;-63
2022/08/31 21:10:39;;;;;;;1.90;1.50;;;;;;;14.09;71.95;100382.15;213241;1276;140361;-63
2022/08/31 21:15:43;;;;;;;3.90;1.70;;;;;;;14.06;72.65;100383.83;212997;1276;140236;-65
2022/08/31 21:20:46;;;;;;;2.40;1.80;;;;;;;14.09;73.22;100387.51;213358;1276;238971;-64
2022/08/31 21:25:48;;;;;;;3.50;2.00;;;;;;;14.19;73.32;100386.67;213336;1277;140710;-64
2022/08/31 21:30:51;;;;;;;5.50;2.00;;;;;;;14.22;73.44;100387.64;212948;1277;141086;-64
2022/08/31 21:36:07;;;;;;;1.90;1.40;;;;;;;14.15;73.56;100388.05;212561;1277;139910;-65
2022/08/31 21:41:11;;;;;;;2.50;2.00;;;;;;;14.17;73.89;100391.79;213486;1276;139915;-63
2022/08/31 21:46:16;;;;;;;2.90;2.20;;;;;;;14.21;73.99;100392.61;212803;1276;141823;-62
2022/08/31 21:51:23;;;;;;;3.00;2.50;;;;;;;14.19;74.09;100389.93;215016;1276;140010;-63
2022/08/31 21:56:29;;;;;;;2.40;2.00;;;;;;;14.15;74.09;100393.73;213849;1277;141562;-63
2022/08/31 22:01:33;;;;;;;1.70;1.60;;;;;;;14.16;74.31;100396.42;213804;1276;141464;-64
2022/08/31 22:06:36;;;;;;;2.00;1.90;;;;;;;14.16;74.27;100390.52;214072;1276;141416;-66
2022/08/31 22:11:48;;;;;;;3.20;1.70;;;;;;;14.08;74.27;100390.45;215497;1276;141202;-65
2022/08/31 22:16:50;;;;;;;5.20;1.80;;;;;;;14.07;74.24;100391.84;215305;1276;140385;-64
2022/08/31 22:21:55;;;;;;;3.30;2.20;;;;;;;14.14;74.45;100384.87;214084;1276;143834;-64
2022/08/31 22:27:00;;;;;;;1.70;1.50;;;;;;;14.13;74.43;100381.22;213635;1276;140961;-64
2022/08/31 22:32:10;;;;;;;2.60;2.10;;;;;;;14.19;74.85;100382.33;213240;1276;142285;-64
2022/08/31 22:37:13;;;;;;;7.80;2.00;;;;;;;14.22;74.56;100385.81;213755;1276;141482;-63
2022/08/31 22:42:15;;;;;;;3.10;2.00;;;;;;;14.18;74.66;100384.19;213464;1276;141540;-64
2022/08/31 22:47:18;;;;;;;3.10;2.40;;;;;;;14.22;75.43;100383.35;213484;1276;140386;-64
2022/08/31 22:52:20;;;;;;;3.20;1.40;;;;;;;14.26;75.23;100380.94;213173;1276;140209;-65
2022/08/31 22:57:22;;;;;;;5.10;1.90;;;;;;;14.27;75.06;100378.81;213553;1276;141983;-65
2022/08/31 23:02:26;;;;;;;2.80;1.60;;;;;;;14.28;75.00;100379.70;213449;1277;140911;-67
2022/08/31 23:07:28;;;;;;;2.70;1.70;;;;;;;14.27;75.13;100381.28;212790;1278;143002;-64
2022/08/31 23:12:31;;;;;;;8.80;2.50;;;;;;;14.21;75.06;100377.12;213851;1277;141064;-66
2022/08/31 23:17:33;;;;;;;4.30;1.80;;;;;;;14.28;75.09;100375.95;213282;1276;143463;-66
2022/08/31 23:22:37;;;;;;;2.60;2.00;;;;;;;14.37;74.97;100367.72;212725;1276;141264;-65
2022/08/31 23:27:39;;;;;;;2.60;2.00;;;;;;;14.47;74.96;100373.48;212912;1276;146819;-65
2022/08/31 23:32:43;;;;;;;4.00;1.90;;;;;;;14.48;74.47;100372.44;214340;1276;154202;-65
2022/08/31 23:37:48;;;;;;;1.90;1.70;;;;;;;14.51;74.39;100370.54;212808;1276;141372;-65